createdAt,value
2023-01-13T00:01:29.425Z,62.61
2023-01-13T00:04:32.043Z,63.49
2023-01-13T00:07:17.689Z,63.44
2023-01-13T00:10:01.537Z,63.39
2023-01-13T00:12:30.337Z,63.62
2023-01-13T00:15:10.932Z,63.46
2023-01-13T00:18:14.487Z,63.65
2023-01-13T00:20:50.882Z,63.65
2023-01-13T00:23:27.077Z,64.07
2023-01-13T00:26:44.129Z,64.00
2023-01-13T00:29:37.702Z,64.09
2023-01-13T00:32:08.736Z,64.03
2023-01-13T00:35:00.183Z,64.01
2023-01-13T00:37:42.741Z,63.74
2023-01-13T00:40:29.376Z,64.05
2023-01-13T00:43:26.780Z,64.31
2023-01-13T00:46:03.965Z,64.28
2023-01-13T00:49:17.755Z,64.61
2023-01-13T00:52:29.036Z,64.03
2023-01-13T00:55:33.147Z,64.02
2023-01-13T00:58:26.319Z,63.90
2023-01-13T01:01:45.606Z,63.75
2023-01-13T01:04:40.205Z,63.57
2023-01-13T01:07:52.074Z,64.10
2023-01-13T01:10:48.713Z,63.64
2023-01-13T01:13:26.816Z,63.34
2023-01-13T01:16:36.783Z,63.25
2023-01-13T01:19:15.645Z,63.05
2023-01-13T01:21:49.508Z,63.27
2023-01-13T01:24:50.746Z,62.95
2023-01-13T01:28:01.006Z,62.26
2023-01-13T01:31:07.149Z,62.42
2023-01-13T01:34:04.526Z,62.34
2023-01-13T01:37:21.013Z,62.26
2023-01-13T01:40:02.426Z,62.34
2023-01-13T01:43:22.095Z,62.31
2023-01-13T01:46:23.870Z,62.76
2023-01-13T01:49:41.076Z,62.67
2023-01-13T01:52:38.735Z,63.08
2023-01-13T01:55:32.511Z,62.70
2023-01-13T01:58:21.911Z,63.00
2023-01-13T02:01:12.947Z,63.16
2023-01-13T02:03:53.086Z,62.84
2023-01-13T02:06:21.724Z,62.88
2023-01-13T02:08:50.237Z,62.92
2023-01-13T02:11:53.813Z,62.58
2023-01-13T02:14:45.968Z,62.71
2023-01-13T02:18:01.741Z,62.43
2023-01-13T02:20:56.841Z,62.10
2023-01-13T02:24:34.137Z,61.92
2023-01-13T02:27:29.662Z,62.13
2023-01-13T02:30:47.071Z,61.83
2023-01-13T02:33:35.212Z,61.97
2023-01-13T02:36:46.392Z,61.79
2023-01-13T02:39:19.889Z,61.96
2023-01-13T02:42:46.430Z,62.26
2023-01-13T02:45:33.657Z,62.14
2023-01-13T02:48:07.150Z,62.27
2023-01-13T02:51:19.256Z,61.83
2023-01-13T02:54:05.489Z,62.14
2023-01-13T02:56:51.183Z,62.15
2023-01-13T02:59:26.289Z,62.06
2023-01-13T03:02:22.876Z,61.97
2023-01-13T03:04:58.764Z,61.79
2023-01-13T03:08:28.681Z,61.63
2023-01-13T03:11:28.433Z,61.51
2023-01-13T03:14:38.788Z,61.83
2023-01-13T03:18:25.375Z,62.05
2023-01-13T03:21:26.718Z,62.03
2023-01-13T03:24:11.962Z,62.05
2023-01-13T03:27:38.526Z,62.09
2023-01-13T03:30:59.024Z,62.15
2023-01-13T03:33:39.887Z,62.11
2023-01-13T03:36:33.767Z,61.75
2023-01-13T03:39:12.492Z,61.44
2023-01-13T03:41:54.695Z,61.42
2023-01-13T03:45:20.936Z,61.37
2023-01-13T03:48:07.571Z,61.36
2023-01-13T03:51:04.272Z,61.80
2023-01-13T03:54:13.610Z,61.56
2023-01-13T03:56:58.886Z,61.67
2023-01-13T03:59:52.037Z,61.80
2023-01-13T04:02:51.246Z,61.80
2023-01-13T04:06:34.166Z,61.61
2023-01-13T04:09:43.606Z,61.88
2023-01-13T04:12:54.070Z,61.78
2023-01-13T04:15:46.441Z,61.56
2023-01-13T04:18:33.189Z,61.57
2023-01-13T04:21:24.430Z,61.59
2023-01-13T04:24:29.780Z,61.79
2023-01-13T04:27:13.055Z,62.16
2023-01-13T04:29:50.192Z,62.03
2023-01-13T04:32:48.797Z,61.71
2023-01-13T04:35:41.932Z,61.69
2023-01-13T04:38:38.318Z,61.42
2023-01-13T04:41:48.099Z,61.53
2023-01-13T04:44:25.505Z,61.39
2023-01-13T04:47:16.721Z,61.48
2023-01-13T04:50:06.380Z,61.27
2023-01-13T04:53:14.602Z,61.33
2023-01-13T04:56:06.527Z,61.37
2023-01-13T04:58:46.375Z,61.23
2023-01-13T05:01:42.074Z,61.24
2023-01-13T05:05:17.236Z,61.27
2023-01-13T05:08:13.569Z,62.11
2023-01-13T05:11:24.033Z,61.81
2023-01-13T05:14:19.752Z,61.58
2023-01-13T05:17:03.268Z,61.61
2023-01-13T05:19:43.957Z,61.58
2023-01-13T05:22:36.813Z,61.69
2023-01-13T05:25:25.770Z,61.83
2023-01-13T05:28:09.702Z,61.83
2023-01-13T05:30:44.112Z,61.65
2023-01-13T05:33:21.616Z,61.67
2023-01-13T05:35:57.161Z,61.56
2023-01-13T05:38:30.453Z,61.79
2023-01-13T05:41:26.251Z,61.69
2023-01-13T05:44:05.411Z,61.64
2023-01-13T05:46:51.773Z,61.67
2023-01-13T05:49:23.374Z,61.77
2023-01-13T05:51:56.809Z,61.76
2023-01-13T05:54:41.202Z,61.47
2023-01-13T05:57:21.361Z,61.55
2023-01-13T06:00:14.924Z,61.40
2023-01-13T06:02:43.508Z,61.53
2023-01-13T06:05:26.401Z,61.32
2023-01-13T06:08:13.546Z,61.28
2023-01-13T06:10:44.961Z,61.93
2023-01-13T06:13:16.234Z,62.40
2023-01-13T06:15:47.818Z,62.50
2023-01-13T06:18:19.007Z,62.33
2023-01-13T06:21:06.582Z,62.34
2023-01-13T06:24:04.494Z,62.06
2023-01-13T06:26:48.390Z,61.80
2023-01-13T06:29:33.690Z,61.79
2023-01-13T06:32:29.263Z,62.03
2023-01-13T06:35:13.287Z,62.44
2023-01-13T06:37:44.960Z,62.26
2023-01-13T06:40:30.504Z,61.91
2023-01-13T06:43:17.167Z,61.84
2023-01-13T06:45:58.528Z,62.23
2023-01-13T06:48:35.549Z,62.10
2023-01-13T06:51:13.003Z,62.21
2023-01-13T06:54:04.709Z,62.11
2023-01-13T06:56:56.343Z,61.95
2023-01-13T06:59:39.364Z,61.63
2023-01-13T07:02:24.730Z,61.23
2023-01-13T07:04:56.600Z,61.25
2023-01-13T07:07:38.391Z,61.41
2023-01-13T07:10:35.309Z,61.70
2023-01-13T07:13:38.942Z,61.54
2023-01-13T07:16:10.607Z,61.34
2023-01-13T07:19:01.477Z,61.38
2023-01-13T07:21:33.875Z,61.11
2023-01-13T07:24:08.195Z,61.91
2023-01-13T07:27:05.657Z,61.27
2023-01-13T07:29:41.400Z,61.18
2023-01-13T07:32:41.631Z,61.10
2023-01-13T07:35:26.899Z,61.54
2023-01-13T07:38:14.551Z,61.59
2023-01-13T07:41:24.084Z,61.58
2023-01-13T07:44:03.002Z,61.35
2023-01-13T07:46:34.340Z,62.04
2023-01-13T07:49:10.682Z,61.81
2023-01-13T07:51:42.469Z,62.02
2023-01-13T07:54:19.419Z,61.83
2023-01-13T07:56:58.056Z,61.13
2023-01-13T07:59:29.547Z,61.04
2023-01-13T08:02:24.255Z,61.41
2023-01-13T08:05:18.285Z,61.09
2023-01-13T08:08:13.784Z,61.24
2023-01-13T08:10:48.724Z,59.90
2023-01-13T08:13:29.086Z,60.88
2023-01-13T08:16:56.681Z,60.37
2023-01-13T08:19:33.117Z,60.41
2023-01-13T08:22:13.067Z,59.87
2023-01-13T08:24:46.671Z,60.24
2023-01-13T08:27:23.918Z,60.86
2023-01-13T08:30:09.751Z,60.02
2023-01-13T08:33:11.046Z,60.00
2023-01-13T08:36:28.124Z,59.68
2023-01-13T08:39:50.878Z,61.60
2023-01-13T08:42:56.330Z,63.48
2023-01-13T08:46:11.621Z,63.26
2023-01-13T08:49:17.464Z,61.95
2023-01-13T08:52:34.146Z,60.49
2023-01-13T08:55:17.983Z,60.67
2023-01-13T08:58:14.487Z,60.64
2023-01-13T09:01:15.262Z,59.69
2023-01-13T09:04:27.703Z,60.94
2023-01-13T09:07:16.271Z,63.95
2023-01-13T09:09:57.222Z,62.96
2023-01-13T09:12:53.286Z,61.39
2023-01-13T09:15:27.273Z,60.94
2023-01-13T09:18:06.712Z,60.26
2023-01-13T09:20:50.572Z,58.72
2023-01-13T09:23:24.286Z,59.71
2023-01-13T09:25:56.228Z,61.57
2023-01-13T09:28:32.978Z,65.42
2023-01-13T09:31:01.815Z,64.12
2023-01-13T09:33:49.458Z,62.31
2023-01-13T09:36:26.804Z,61.22
2023-01-13T09:39:01.573Z,59.06
2023-01-13T09:42:21.360Z,57.91
2023-01-13T09:45:12.672Z,59.77
2023-01-13T09:48:27.443Z,64.55
2023-01-13T09:51:30.804Z,62.64
2023-01-13T09:55:06.796Z,60.61
2023-01-13T09:57:41.422Z,59.22
2023-01-13T10:00:28.142Z,60.49
2023-01-13T10:03:36.529Z,63.62
2023-01-13T10:07:01.481Z,63.44
2023-01-13T10:10:02.391Z,62.18
2023-01-13T10:12:52.782Z,60.67
2023-01-13T10:15:32.463Z,59.64
2023-01-13T10:18:57.379Z,58.24
2023-01-13T10:23:13.778Z,61.63
2023-01-13T10:26:38.745Z,62.76
2023-01-13T10:30:10.302Z,59.71
2023-01-13T10:33:27.887Z,61.13
2023-01-13T10:36:48.965Z,62.04
2023-01-13T10:39:56.222Z,64.39
2023-01-13T10:43:13.354Z,62.42
2023-01-13T10:46:34.554Z,60.18
2023-01-13T10:49:33.778Z,59.00
2023-01-13T10:52:49.557Z,59.37
2023-01-13T10:55:45.583Z,63.39
2023-01-13T10:58:37.101Z,62.12
2023-01-13T11:01:54.884Z,60.53
2023-01-13T11:06:00.825Z,59.52
2023-01-13T11:08:49.748Z,58.01
2023-01-13T11:12:31.572Z,59.95
2023-01-13T11:16:52.799Z,62.83
2023-01-13T11:20:02.328Z,60.91
2023-01-13T11:22:53.194Z,59.55
2023-01-13T11:26:08.404Z,57.62
2023-01-13T11:29:57.884Z,61.01
2023-01-13T11:33:11.945Z,61.28
2023-01-13T11:37:01.013Z,64.62
2023-01-13T11:40:35.668Z,62.53
2023-01-13T11:43:52.295Z,60.73
2023-01-13T11:47:08.899Z,58.24
2023-01-13T11:50:35.494Z,59.02
2023-01-13T11:54:17.686Z,58.89
2023-01-13T11:57:42.701Z,64.34
2023-01-13T12:00:48.353Z,63.51
2023-01-13T12:04:09.159Z,61.04
2023-01-13T12:07:58.697Z,59.67
2023-01-13T12:12:34.308Z,57.66
2023-01-13T12:15:27.523Z,62.87
2023-01-13T12:19:05.720Z,62.97
2023-01-13T12:22:42.501Z,61.04
2023-01-13T12:26:15.367Z,58.84
2023-01-13T12:30:06.769Z,59.70
2023-01-13T12:33:46.266Z,61.97
2023-01-13T12:36:50.532Z,64.14
2023-01-13T12:40:18.810Z,62.30
2023-01-13T12:44:11.658Z,61.15
2023-01-13T12:47:53.004Z,59.56
2023-01-13T12:51:03.142Z,57.40
2023-01-13T12:54:25.353Z,58.47
2023-01-13T12:57:59.889Z,64.50
2023-01-13T13:01:46.575Z,63.31
2023-01-13T13:05:14.394Z,60.77
2023-01-13T13:09:27.905Z,59.75
2023-01-13T13:13:41.885Z,57.50
2023-01-13T13:16:51.526Z,60.62
2023-01-13T13:19:59.703Z,64.19
2023-01-13T13:23:11.509Z,64.44
2023-01-13T13:26:23.843Z,62.75
2023-01-13T13:30:29.072Z,60.85
2023-01-13T13:34:10.048Z,59.80
2023-01-13T13:37:53.173Z,57.81
2023-01-13T13:41:00.261Z,59.65
2023-01-13T13:44:07.550Z,60.47
2023-01-13T13:46:57.530Z,65.32
2023-01-13T13:50:15.206Z,65.06
2023-01-13T13:53:33.026Z,63.27
2023-01-13T13:56:03.754Z,61.94
2023-01-13T13:58:53.951Z,60.68
2023-01-13T14:01:35.390Z,60.23
2023-01-13T14:04:26.362Z,59.06
2023-01-13T14:07:44.455Z,59.78
2023-01-13T14:10:30.138Z,63.16
2023-01-13T14:13:26.539Z,64.37
2023-01-13T14:16:30.451Z,63.21
2023-01-13T14:20:07.794Z,61.52
2023-01-13T14:23:05.760Z,60.21
2023-01-13T14:25:53.637Z,59.44
2023-01-13T14:28:35.934Z,61.72
2023-01-13T14:31:08.744Z,64.29
2023-01-13T14:33:50.163Z,63.29
2023-01-13T14:36:34.396Z,62.34
2023-01-13T14:39:06.101Z,61.46
2023-01-13T14:41:53.000Z,61.47
2023-01-13T14:44:46.377Z,60.55
2023-01-13T14:47:47.714Z,60.22
2023-01-13T14:50:31.560Z,59.97
2023-01-13T14:54:07.513Z,59.12
2023-01-13T14:57:31.935Z,60.92
2023-01-13T15:00:33.044Z,64.42
2023-01-13T15:03:09.251Z,63.72
2023-01-13T15:05:58.678Z,62.97
2023-01-13T15:08:38.943Z,61.58
2023-01-13T15:11:40.732Z,61.29
2023-01-13T15:14:31.300Z,60.77
2023-01-13T15:17:27.428Z,60.38
2023-01-13T15:20:19.183Z,59.93
2023-01-13T15:23:18.312Z,59.31
2023-01-13T15:25:55.321Z,59.49
2023-01-13T15:28:32.102Z,62.67
2023-01-13T15:31:26.498Z,63.92
2023-01-13T15:34:27.831Z,63.40
2023-01-13T15:37:13.027Z,62.31
2023-01-13T15:39:50.495Z,61.61
2023-01-13T15:42:49.544Z,60.83
2023-01-13T15:45:46.293Z,60.39
2023-01-13T15:48:17.477Z,60.22
2023-01-13T15:50:55.492Z,60.19
2023-01-13T15:53:33.754Z,59.18
2023-01-13T15:56:36.267Z,58.07
2023-01-13T16:00:31.654Z,63.70
2023-01-13T16:03:57.102Z,63.98
2023-01-13T16:06:52.104Z,62.63
2023-01-13T16:09:45.891Z,61.22
2023-01-13T16:12:17.157Z,60.76
2023-01-13T16:14:56.665Z,60.98
2023-01-13T16:17:37.670Z,60.51
2023-01-13T16:20:24.885Z,60.03
2023-01-13T16:23:19.974Z,59.59
2023-01-13T16:26:14.523Z,58.32
2023-01-13T16:28:55.557Z,59.60
2023-01-13T16:32:37.358Z,60.91
2023-01-13T16:36:21.301Z,65.71
2023-01-13T16:39:18.188Z,63.97
2023-01-13T16:42:14.444Z,62.73
2023-01-13T16:45:13.807Z,62.40
2023-01-13T16:48:19.702Z,61.34
2023-01-13T16:51:38.839Z,60.85
2023-01-13T16:55:28.241Z,60.50
2023-01-13T16:59:02.253Z,59.99
2023-01-13T17:02:41.589Z,59.18
2023-01-13T17:06:23.481Z,60.38
2023-01-13T17:09:47.677Z,63.68
2023-01-13T17:12:25.268Z,62.96
2023-01-13T17:15:36.562Z,61.99
2023-01-13T17:18:13.791Z,61.16
2023-01-13T17:21:24.100Z,60.75
2023-01-13T17:24:49.401Z,60.27
2023-01-13T17:27:21.580Z,59.73
2023-01-13T17:30:05.216Z,59.23
2023-01-13T17:32:33.898Z,58.66
2023-01-13T17:35:13.417Z,59.72
2023-01-13T17:37:53.934Z,63.59
2023-01-13T17:40:40.814Z,65.34
2023-01-13T17:43:14.452Z,64.79
2023-01-13T17:45:43.214Z,63.60
2023-01-13T17:48:25.174Z,62.37
2023-01-13T17:50:58.785Z,61.34
2023-01-13T17:53:33.937Z,61.01
2023-01-13T17:56:16.947Z,60.43
2023-01-13T17:59:24.847Z,60.15
2023-01-13T18:02:11.370Z,59.74
2023-01-13T18:05:12.793Z,59.44
2023-01-13T18:08:11.796Z,59.38
2023-01-13T18:11:03.500Z,60.65
2023-01-13T18:14:09.586Z,65.34
2023-01-13T18:17:01.404Z,65.09
2023-01-13T18:20:11.667Z,63.80
2023-01-13T18:23:11.784Z,62.31
2023-01-13T18:26:09.313Z,61.85
2023-01-13T18:28:45.270Z,61.55
2023-01-13T18:32:14.427Z,60.86
2023-01-13T18:35:06.071Z,60.43
2023-01-13T18:37:52.245Z,60.13
2023-01-13T18:40:36.423Z,60.07
2023-01-13T18:43:39.459Z,59.66
2023-01-13T18:46:12.816Z,59.19
2023-01-13T18:48:48.947Z,59.70
2023-01-13T18:51:17.699Z,59.92
2023-01-13T18:53:46.175Z,60.98
2023-01-13T18:56:25.896Z,64.78
2023-01-13T18:59:03.310Z,66.08
2023-01-13T19:01:37.275Z,65.59
2023-01-13T19:04:20.142Z,64.03
2023-01-13T19:07:12.105Z,62.78
2023-01-13T19:10:09.790Z,62.06
2023-01-13T19:13:18.697Z,61.74
2023-01-13T19:16:30.965Z,60.95
2023-01-13T19:19:23.110Z,60.34
2023-01-13T19:22:01.825Z,60.43
2023-01-13T19:24:47.014Z,60.49
2023-01-13T19:27:21.976Z,59.93
2023-01-13T19:29:59.061Z,60.00
2023-01-13T19:32:38.650Z,59.78
2023-01-13T19:35:13.161Z,59.61
2023-01-13T19:38:01.988Z,58.32
2023-01-13T19:41:02.259Z,60.08
2023-01-13T19:44:16.106Z,63.59
2023-01-13T19:47:08.953Z,63.40
2023-01-13T19:49:54.437Z,62.42
2023-01-13T19:52:41.858Z,61.40
2023-01-13T19:55:54.359Z,60.73
2023-01-13T19:58:42.072Z,60.70
2023-01-13T20:01:41.083Z,60.27
2023-01-13T20:04:37.315Z,60.29
2023-01-13T20:07:24.646Z,60.15
2023-01-13T20:10:47.210Z,60.05
2023-01-13T20:13:27.845Z,60.20
2023-01-13T20:16:35.580Z,60.47
2023-01-13T20:19:19.638Z,60.77
2023-01-13T20:21:53.719Z,60.98
2023-01-13T20:24:54.854Z,60.66
2023-01-13T20:27:50.672Z,60.64
2023-01-13T20:30:47.625Z,60.56
2023-01-13T20:33:32.288Z,60.78
2023-01-13T20:36:11.181Z,61.29
2023-01-13T20:39:09.380Z,61.02
2023-01-13T20:43:10.019Z,61.23
2023-01-13T20:46:27.358Z,61.98
2023-01-13T20:49:53.425Z,61.51
2023-01-13T20:53:08.955Z,61.81
2023-01-13T20:56:31.633Z,62.03
2023-01-13T20:59:43.552Z,61.81
2023-01-13T21:02:46.056Z,62.09
2023-01-13T21:06:23.175Z,62.45
2023-01-13T21:09:04.536Z,61.67
2023-01-13T21:12:24.193Z,62.22
2023-01-13T21:15:42.624Z,61.76
2023-01-13T21:18:42.711Z,62.44
2023-01-13T21:21:54.135Z,62.31
2023-01-13T21:25:48.808Z,62.36
2023-01-13T21:28:34.372Z,61.87
2023-01-13T21:31:41.290Z,62.27
2023-01-13T21:34:54.089Z,62.87
2023-01-13T21:38:18.963Z,63.29
2023-01-13T21:41:08.864Z,62.43
2023-01-13T21:44:26.048Z,62.74
2023-01-13T21:48:10.446Z,62.87
2023-01-13T21:51:18.037Z,62.84
2023-01-13T21:54:13.753Z,62.52
2023-01-13T21:57:02.863Z,63.33
2023-01-13T21:59:56.741Z,62.56
2023-01-13T22:02:35.758Z,63.42
2023-01-13T22:05:40.454Z,63.45
2023-01-13T22:08:32.134Z,63.42
2023-01-13T22:11:44.992Z,63.09
2023-01-13T22:14:24.023Z,63.30
2023-01-13T22:17:09.855Z,63.30
2023-01-13T22:20:59.692Z,63.40
2023-01-13T22:24:19.644Z,63.88
2023-01-13T22:27:43.299Z,64.04
2023-01-13T22:30:32.313Z,63.51
2023-01-13T22:33:24.345Z,63.99
2023-01-13T22:36:11.048Z,64.19
2023-01-13T22:39:17.114Z,63.93
2023-01-13T22:42:05.055Z,63.62
2023-01-13T22:44:56.778Z,63.54
2023-01-13T22:47:49.743Z,63.32
2023-01-13T22:51:04.309Z,63.26
2023-01-13T22:53:58.336Z,63.03
2023-01-13T22:56:52.857Z,62.93
2023-01-13T22:59:42.745Z,63.19
2023-01-13T23:03:01.183Z,63.51
2023-01-13T23:06:28.298Z,64.21
2023-01-13T23:09:52.942Z,64.20
2023-01-13T23:13:29.417Z,63.49
2023-01-13T23:17:18.423Z,63.86
2023-01-13T23:20:33.040Z,63.42
2023-01-13T23:23:52.724Z,64.00
2023-01-13T23:27:13.540Z,63.57
2023-01-13T23:30:22.262Z,63.73
2023-01-13T23:33:12.258Z,63.62
2023-01-13T23:36:11.121Z,63.11
2023-01-13T23:39:01.886Z,63.44
2023-01-13T23:42:30.729Z,64.01
2023-01-13T23:45:43.877Z,64.00
2023-01-13T23:49:04.660Z,63.32
2023-01-13T23:52:16.053Z,63.40
2023-01-13T23:55:54.056Z,63.89
2023-01-13T23:58:42.061Z,63.70
